createdAt,value
2019-01-29T00:01:27.948Z,78.51
2019-01-29T00:03:57.434Z,78.06
2019-01-29T00:06:26.974Z,78.57
2019-01-29T00:08:56.717Z,78.41
2019-01-29T00:11:26.429Z,78.35
2019-01-29T00:13:56.282Z,78.16
2019-01-29T00:16:25.761Z,78.24
2019-01-29T00:18:55.254Z,78.80
2019-01-29T00:21:24.709Z,78.19
2019-01-29T00:23:54.202Z,78.44
2019-01-29T00:26:23.682Z,78.77
2019-01-29T00:28:53.256Z,78.32
2019-01-29T00:31:22.713Z,78.53
2019-01-29T00:33:52.318Z,77.75
2019-01-29T00:36:21.892Z,77.86
2019-01-29T00:38:51.439Z,77.76
2019-01-29T00:41:20.942Z,76.77
2019-01-29T00:43:50.468Z,76.26
2019-01-29T00:46:19.954Z,76.52
2019-01-29T00:48:49.421Z,77.11
2019-01-29T00:51:18.922Z,76.70
2019-01-29T00:53:48.467Z,76.57
2019-01-29T00:56:17.927Z,76.78
2019-01-29T00:58:47.418Z,76.03
2019-01-29T01:01:16.963Z,76.23
2019-01-29T01:03:46.471Z,75.70
2019-01-29T01:06:15.990Z,75.54
2019-01-29T01:08:45.871Z,75.82
2019-01-29T01:11:15.377Z,76.37
2019-01-29T01:13:44.874Z,75.23
2019-01-29T01:16:14.378Z,75.79
2019-01-29T01:18:43.848Z,75.63
2019-01-29T01:21:13.329Z,75.95
2019-01-29T01:23:42.814Z,76.14
2019-01-29T01:26:12.453Z,75.81
2019-01-29T01:28:41.967Z,75.64
2019-01-29T01:31:11.538Z,76.21
2019-01-29T01:33:41.034Z,76.15
2019-01-29T01:36:10.542Z,75.48
2019-01-29T01:38:40.059Z,75.34
2019-01-29T01:41:09.537Z,74.92
2019-01-29T01:43:39.054Z,75.06
2019-01-29T01:46:08.562Z,76.31
2019-01-29T01:48:38.032Z,75.98
2019-01-29T01:51:07.549Z,75.06
2019-01-29T01:53:37.008Z,74.91
2019-01-29T01:56:06.643Z,75.95
2019-01-29T01:58:36.139Z,76.10
2019-01-29T02:01:06.088Z,76.09
2019-01-29T02:03:35.642Z,75.46
2019-01-29T02:06:05.522Z,76.09
2019-01-29T02:08:35.039Z,75.51
2019-01-29T02:11:04.521Z,75.78
2019-01-29T02:13:34.172Z,75.85
2019-01-29T02:16:03.661Z,76.40
2019-01-29T02:18:33.154Z,76.76
2019-01-29T02:21:02.805Z,75.88
2019-01-29T02:23:32.323Z,76.29
2019-01-29T02:26:01.848Z,76.22
2019-01-29T02:28:31.342Z,76.41
2019-01-29T02:31:00.950Z,76.42
2019-01-29T02:33:30.434Z,76.08
2019-01-29T02:36:00.128Z,76.14
2019-01-29T02:38:29.703Z,76.36
2019-01-29T02:40:59.270Z,76.39
2019-01-29T02:43:28.828Z,76.67
2019-01-29T02:45:58.329Z,76.91
2019-01-29T02:48:27.798Z,76.91
2019-01-29T02:50:57.292Z,77.31
2019-01-29T02:53:26.911Z,77.04
2019-01-29T02:55:56.376Z,77.51
2019-01-29T02:58:25.841Z,77.47
2019-01-29T03:00:55.323Z,77.17
2019-01-29T03:03:24.796Z,76.96
2019-01-29T03:05:54.410Z,76.32
2019-01-29T03:08:23.873Z,76.69
2019-01-29T03:10:53.493Z,76.62
2019-01-29T03:13:22.946Z,76.96
2019-01-29T03:15:52.401Z,77.47
2019-01-29T03:18:21.939Z,76.81
2019-01-29T03:20:51.404Z,76.81
2019-01-29T03:23:27.220Z,76.41
2019-01-29T03:25:52.295Z,76.32
2019-01-29T03:28:21.924Z,76.84
2019-01-29T03:30:51.511Z,77.21
2019-01-29T03:33:21.021Z,77.37
2019-01-29T03:35:50.518Z,77.03
2019-01-29T03:38:20.231Z,77.26
2019-01-29T03:40:49.730Z,76.42
2019-01-29T03:43:19.250Z,76.37
2019-01-29T03:45:48.717Z,76.78
2019-01-29T03:48:19.003Z,76.20
2019-01-29T03:50:48.941Z,77.30
2019-01-29T03:53:18.461Z,76.68
2019-01-29T03:55:48.251Z,76.84
2019-01-29T03:58:17.766Z,76.96
2019-01-29T04:00:47.350Z,76.70
2019-01-29T04:03:16.867Z,76.80
2019-01-29T04:05:46.329Z,76.41
2019-01-29T04:08:16.379Z,77.40
2019-01-29T04:10:45.839Z,76.46
2019-01-29T04:13:15.382Z,75.93
2019-01-29T04:15:45.753Z,76.48
2019-01-29T04:18:15.332Z,76.88
2019-01-29T04:20:44.976Z,76.09
2019-01-29T04:23:14.435Z,75.55
2019-01-29T04:25:43.913Z,75.48
2019-01-29T04:28:13.373Z,75.57
2019-01-29T04:30:42.936Z,75.14
2019-01-29T04:33:12.462Z,75.26
2019-01-29T04:35:42.103Z,75.40
2019-01-29T04:38:11.709Z,75.92
2019-01-29T04:40:41.179Z,75.29
2019-01-29T04:43:12.957Z,75.40
2019-01-29T04:45:41.878Z,75.27
2019-01-29T04:48:11.591Z,74.91
2019-01-29T04:50:41.152Z,74.53
2019-01-29T04:53:10.612Z,74.66
2019-01-29T04:55:40.122Z,74.54
2019-01-29T04:58:09.680Z,75.14
2019-01-29T05:00:39.212Z,75.31
2019-01-29T05:03:08.707Z,75.13
2019-01-29T05:05:38.418Z,75.11
2019-01-29T05:08:07.883Z,74.54
2019-01-29T05:10:37.465Z,74.89
2019-01-29T05:13:06.984Z,74.78
2019-01-29T05:15:36.476Z,74.50
2019-01-29T05:18:05.993Z,74.81
2019-01-29T05:20:35.468Z,75.23
2019-01-29T05:23:05.247Z,75.17
2019-01-29T05:25:34.824Z,75.38
2019-01-29T05:28:04.398Z,74.84
2019-01-29T05:30:33.953Z,74.48
2019-01-29T05:33:03.952Z,74.71
2019-01-29T05:35:33.496Z,74.50
2019-01-29T05:38:04.183Z,75.25
2019-01-29T05:40:33.872Z,74.49
2019-01-29T05:43:03.332Z,75.07
2019-01-29T05:45:32.821Z,75.19
2019-01-29T05:48:02.422Z,74.27
2019-01-29T05:50:31.908Z,74.33
2019-01-29T05:53:01.388Z,74.94
2019-01-29T05:55:30.959Z,74.40
2019-01-29T05:58:00.455Z,74.16
2019-01-29T06:00:34.192Z,75.27
2019-01-29T06:03:03.693Z,75.48
2019-01-29T06:05:33.254Z,74.78
2019-01-29T06:08:05.087Z,75.09
2019-01-29T06:10:34.182Z,74.79
2019-01-29T06:13:03.818Z,74.49
2019-01-29T06:15:33.511Z,74.63
2019-01-29T06:18:03.035Z,74.22
2019-01-29T06:20:32.702Z,75.06
2019-01-29T06:23:02.245Z,74.82
2019-01-29T06:25:31.845Z,74.68
2019-01-29T06:28:01.307Z,73.87
2019-01-29T06:30:30.827Z,74.51
2019-01-29T06:33:00.349Z,73.97
2019-01-29T06:35:29.901Z,74.04
2019-01-29T06:37:59.409Z,73.93
2019-01-29T06:40:29.259Z,74.38
2019-01-29T06:42:59.137Z,74.24
2019-01-29T06:45:28.915Z,74.63
2019-01-29T06:47:58.460Z,73.85
2019-01-29T06:50:28.123Z,74.04
2019-01-29T06:52:58.043Z,74.35
2019-01-29T06:55:27.520Z,73.93
2019-01-29T06:57:57.015Z,74.45
2019-01-29T07:00:28.470Z,74.25
2019-01-29T07:02:59.157Z,73.69
2019-01-29T07:05:28.633Z,73.16
2019-01-29T07:07:58.402Z,72.85
2019-01-29T07:10:28.496Z,73.77
2019-01-29T07:12:58.520Z,74.56
2019-01-29T07:15:46.484Z,74.30
2019-01-29T07:18:47.567Z,74.33
2019-01-29T07:21:17.035Z,74.29
2019-01-29T07:23:46.732Z,73.76
2019-01-29T07:26:16.230Z,74.24
2019-01-29T07:28:45.707Z,74.59
2019-01-29T07:31:15.351Z,74.47
2019-01-29T07:33:44.928Z,75.11
2019-01-29T07:36:14.508Z,74.80
2019-01-29T07:38:43.975Z,74.78
2019-01-29T07:41:13.449Z,74.59
2019-01-29T07:43:42.959Z,73.32
2019-01-29T07:46:12.493Z,75.09
2019-01-29T07:48:41.971Z,74.92
2019-01-29T07:51:11.446Z,75.09
2019-01-29T07:53:41.103Z,74.09
2019-01-29T07:56:10.607Z,74.22
2019-01-29T07:58:40.305Z,74.80
2019-01-29T08:01:09.772Z,74.50
2019-01-29T08:03:39.246Z,74.96
2019-01-29T08:06:09.089Z,75.42
2019-01-29T08:08:38.638Z,74.64
2019-01-29T08:11:08.267Z,75.05
2019-01-29T08:13:37.734Z,75.44
2019-01-29T08:16:07.486Z,75.26
2019-01-29T08:18:36.969Z,75.91
2019-01-29T08:21:06.446Z,75.80
2019-01-29T08:23:35.980Z,75.71
2019-01-29T08:26:05.451Z,74.90
2019-01-29T08:28:35.006Z,74.64
2019-01-29T08:31:04.690Z,75.82
2019-01-29T08:33:34.212Z,75.73
2019-01-29T08:36:04.170Z,76.87
2019-01-29T08:38:33.763Z,76.20
2019-01-29T08:41:04.465Z,75.36
2019-01-29T08:43:34.105Z,74.61
2019-01-29T08:46:04.015Z,73.96
2019-01-29T08:48:33.485Z,74.38
2019-01-29T08:51:03.792Z,73.75
2019-01-29T08:53:33.393Z,74.08
2019-01-29T08:56:02.881Z,73.71
2019-01-29T08:58:32.464Z,72.96
2019-01-29T09:01:01.973Z,72.96
2019-01-29T09:03:31.578Z,72.22
2019-01-29T09:06:01.225Z,72.38
2019-01-29T09:08:30.925Z,71.39
2019-01-29T09:11:00.455Z,71.60
2019-01-29T09:13:29.912Z,71.61
2019-01-29T09:15:59.456Z,71.33
2019-01-29T09:18:28.873Z,71.87
2019-01-29T09:20:58.362Z,72.42
2019-01-29T09:23:30.681Z,71.41
2019-01-29T09:26:00.157Z,71.28
2019-01-29T09:28:29.700Z,70.89
2019-01-29T09:30:59.168Z,72.20
2019-01-29T09:33:28.689Z,71.39
2019-01-29T09:35:58.171Z,71.11
2019-01-29T09:38:28.810Z,71.23
2019-01-29T09:40:58.241Z,72.26
2019-01-29T09:43:28.174Z,72.50
2019-01-29T09:45:57.681Z,72.88
2019-01-29T09:48:27.224Z,73.12
2019-01-29T09:50:56.697Z,73.46
2019-01-29T09:53:26.151Z,73.79
2019-01-29T09:55:55.656Z,74.81
2019-01-29T09:58:25.128Z,75.48
2019-01-29T10:00:54.601Z,74.79
2019-01-29T10:03:24.068Z,75.92
2019-01-29T10:05:53.621Z,74.68
2019-01-29T10:08:23.042Z,74.81
2019-01-29T10:10:52.516Z,73.85
2019-01-29T10:13:22.026Z,72.91
2019-01-29T10:15:51.839Z,72.86
2019-01-29T10:18:21.421Z,73.55
2019-01-29T10:20:50.897Z,72.90
2019-01-29T10:23:20.567Z,72.22
2019-01-29T10:25:50.019Z,72.31
2019-01-29T10:28:19.537Z,72.11
2019-01-29T10:30:48.935Z,70.38
2019-01-29T10:33:18.505Z,68.31
2019-01-29T10:35:47.926Z,67.89
2019-01-29T10:38:17.291Z,67.69
2019-01-29T10:40:46.885Z,67.56
2019-01-29T10:43:16.261Z,67.95
2019-01-29T10:45:45.826Z,67.41
2019-01-29T10:48:15.228Z,67.60
2019-01-29T10:50:44.607Z,67.08
2019-01-29T10:53:14.164Z,66.72
2019-01-29T10:55:47.488Z,65.62
2019-01-29T10:58:14.918Z,66.62
2019-01-29T11:00:44.414Z,65.82
2019-01-29T11:03:13.989Z,65.29
2019-01-29T11:05:43.581Z,65.32
2019-01-29T11:08:12.945Z,65.64
2019-01-29T11:10:42.389Z,66.16
2019-01-29T11:13:11.764Z,66.10
2019-01-29T11:15:43.332Z,65.12
2019-01-29T11:18:15.112Z,65.42
2019-01-29T11:20:44.670Z,65.10
2019-01-29T11:23:14.105Z,64.18
2019-01-29T11:25:43.884Z,64.36
2019-01-29T11:28:13.303Z,64.48
2019-01-29T11:30:43.107Z,63.67
2019-01-29T11:33:12.508Z,65.63
2019-01-29T11:35:42.013Z,64.43
2019-01-29T11:38:11.418Z,64.12
2019-01-29T11:40:40.993Z,64.27
2019-01-29T11:43:10.437Z,65.08
2019-01-29T11:45:51.967Z,66.44
2019-01-29T11:48:21.408Z,65.35
2019-01-29T11:50:50.878Z,64.51
2019-01-29T11:53:20.384Z,64.87
2019-01-29T11:55:50.021Z,65.17
2019-01-29T11:58:19.410Z,65.75
2019-01-29T12:01:09.505Z,63.27
2019-01-29T12:03:38.883Z,64.23
2019-01-29T12:06:08.419Z,65.42
2019-01-29T12:08:38.457Z,65.40
2019-01-29T12:11:08.010Z,65.23
2019-01-29T12:13:37.391Z,63.65
2019-01-29T12:16:06.821Z,64.64
2019-01-29T12:18:36.301Z,64.75
2019-01-29T12:21:06.116Z,64.10
2019-01-29T12:23:35.519Z,63.27
2019-01-29T12:26:12.934Z,64.88
2019-01-29T12:28:36.590Z,64.73
2019-01-29T12:31:06.253Z,64.36
2019-01-29T12:33:35.729Z,63.37
2019-01-29T12:36:05.276Z,63.73
2019-01-29T12:38:34.832Z,63.55
2019-01-29T12:41:04.223Z,63.14
2019-01-29T12:43:33.794Z,63.01
2019-01-29T12:46:03.562Z,62.84
2019-01-29T12:48:32.941Z,63.13
2019-01-29T12:51:04.077Z,62.79
2019-01-29T12:53:41.736Z,61.24
2019-01-29T12:56:11.147Z,61.08
2019-01-29T12:58:40.610Z,59.01
2019-01-29T13:01:10.084Z,59.46
2019-01-29T13:03:39.734Z,60.21
2019-01-29T13:06:09.307Z,58.75
2019-01-29T13:08:38.754Z,59.68
2019-01-29T13:11:08.225Z,58.65
2019-01-29T13:13:37.616Z,59.51
2019-01-29T13:16:07.026Z,59.44
2019-01-29T13:18:36.422Z,60.53
2019-01-29T13:21:05.869Z,59.06
2019-01-29T13:23:35.294Z,58.05
2019-01-29T13:26:04.687Z,58.03
2019-01-29T13:28:34.104Z,57.29
2019-01-29T13:31:03.558Z,57.20
2019-01-29T13:33:33.033Z,57.28
2019-01-29T13:36:03.290Z,55.34
2019-01-29T13:38:32.836Z,55.48
2019-01-29T13:41:02.500Z,56.14
2019-01-29T13:43:32.004Z,56.05
2019-01-29T13:46:01.526Z,56.05
2019-01-29T13:48:30.963Z,56.28
2019-01-29T13:51:02.599Z,56.96
2019-01-29T13:53:32.791Z,56.08
2019-01-29T13:56:02.244Z,55.89
2019-01-29T13:58:31.612Z,56.45
2019-01-29T14:01:01.025Z,56.19
2019-01-29T14:03:30.388Z,57.62
2019-01-29T14:05:59.927Z,56.77
2019-01-29T14:08:29.424Z,57.16
2019-01-29T14:10:58.785Z,56.96
2019-01-29T14:13:28.268Z,57.42
2019-01-29T14:15:59.446Z,58.31
2019-01-29T14:18:31.174Z,57.93
2019-01-29T14:21:01.472Z,57.31
2019-01-29T14:23:31.082Z,56.72
2019-01-29T14:26:00.481Z,57.11
2019-01-29T14:28:30.078Z,57.61
2019-01-29T14:30:59.572Z,58.19
2019-01-29T14:33:29.069Z,57.29
2019-01-29T14:35:58.610Z,58.95
2019-01-29T14:39:05.353Z,58.81
2019-01-29T14:41:34.921Z,59.75
2019-01-29T14:44:06.457Z,59.66
2019-01-29T14:46:35.903Z,59.73
2019-01-29T14:49:05.831Z,60.26
2019-01-29T14:51:35.237Z,60.35
2019-01-29T14:54:05.433Z,59.91
2019-01-29T14:56:34.939Z,59.12
2019-01-29T14:59:04.447Z,59.57
2019-01-29T15:01:34.012Z,58.71
2019-01-29T15:04:03.535Z,58.93
2019-01-29T15:06:33.115Z,59.34
2019-01-29T15:09:02.672Z,58.29
2019-01-29T15:11:32.105Z,59.46
2019-01-29T15:14:01.533Z,59.29
2019-01-29T15:17:08.096Z,57.97
2019-01-29T15:19:37.479Z,58.25
2019-01-29T15:22:07.040Z,57.82
2019-01-29T15:24:36.644Z,58.19
2019-01-29T15:27:06.450Z,58.28
2019-01-29T15:29:35.852Z,57.62
2019-01-29T15:32:05.757Z,56.96
2019-01-29T15:34:35.287Z,57.01
2019-01-29T15:37:05.006Z,57.89
2019-01-29T15:39:34.462Z,57.46
2019-01-29T15:42:03.893Z,57.50
2019-01-29T15:44:33.394Z,57.14
2019-01-29T15:47:02.877Z,57.98
2019-01-29T15:49:32.306Z,57.73
2019-01-29T15:52:01.697Z,57.91
2019-01-29T15:54:31.128Z,59.11
2019-01-29T15:57:00.620Z,59.01
2019-01-29T15:59:30.066Z,57.96
2019-01-29T16:01:59.441Z,57.63
2019-01-29T16:04:28.827Z,58.21
2019-01-29T16:06:58.335Z,58.19
2019-01-29T16:09:27.734Z,58.26
2019-01-29T16:11:57.206Z,58.24
2019-01-29T16:14:26.658Z,58.23
2019-01-29T16:16:56.237Z,58.45
2019-01-29T16:19:25.696Z,58.44
2019-01-29T16:21:55.135Z,58.74
2019-01-29T16:24:24.570Z,59.55
2019-01-29T16:26:54.229Z,58.75
2019-01-29T16:29:23.682Z,58.32
2019-01-29T16:31:53.094Z,58.38
2019-01-29T16:34:22.611Z,58.32
2019-01-29T16:36:52.033Z,58.63
2019-01-29T16:39:21.454Z,58.93
2019-01-29T16:41:50.831Z,59.99
2019-01-29T16:44:20.285Z,59.86
2019-01-29T16:46:49.664Z,59.33
2019-01-29T16:49:19.315Z,59.21
2019-01-29T16:51:48.810Z,59.27
2019-01-29T16:54:18.210Z,59.15
2019-01-29T16:56:47.961Z,59.71
2019-01-29T16:59:17.485Z,59.99
2019-01-29T17:01:46.914Z,60.76
2019-01-29T17:04:16.374Z,60.25
2019-01-29T17:06:45.780Z,60.63
2019-01-29T17:09:15.561Z,60.10
2019-01-29T17:11:45.112Z,60.63
2019-01-29T17:14:14.486Z,61.08
2019-01-29T17:16:43.913Z,60.49
2019-01-29T17:19:13.390Z,61.02
2019-01-29T17:21:42.839Z,61.70
2019-01-29T17:24:12.210Z,62.06
2019-01-29T17:26:41.617Z,62.15
2019-01-29T17:29:11.124Z,62.44
2019-01-29T17:31:40.502Z,62.97
2019-01-29T17:34:10.135Z,62.49
2019-01-29T17:36:39.548Z,62.65
2019-01-29T17:39:09.819Z,63.55
2019-01-29T17:41:39.303Z,63.80
2019-01-29T17:44:08.850Z,63.81
2019-01-29T17:46:38.247Z,64.24
2019-01-29T17:49:08.414Z,64.31
2019-01-29T17:51:38.182Z,64.74
2019-01-29T17:54:07.870Z,64.91
2019-01-29T17:56:37.292Z,64.78
2019-01-29T17:59:06.969Z,64.29
2019-01-29T18:01:36.367Z,65.18
2019-01-29T18:04:06.322Z,66.44
2019-01-29T18:06:35.928Z,66.45
2019-01-29T18:09:09.673Z,67.14
2019-01-29T18:11:39.299Z,68.23
2019-01-29T18:14:08.884Z,67.69
2019-01-29T18:16:38.449Z,67.95
2019-01-29T18:19:07.974Z,68.27
2019-01-29T18:21:37.351Z,68.47
2019-01-29T18:24:07.078Z,68.52
2019-01-29T18:26:36.586Z,69.08
2019-01-29T18:29:06.262Z,69.72
2019-01-29T18:31:35.790Z,70.41
2019-01-29T18:34:05.509Z,70.70
2019-01-29T18:36:35.304Z,71.10
2019-01-29T18:39:07.112Z,71.37
2019-01-29T18:41:36.608Z,71.35
2019-01-29T18:44:06.075Z,71.26
2019-01-29T18:46:35.702Z,71.43
2019-01-29T18:49:05.521Z,71.60
2019-01-29T18:51:34.988Z,71.94
2019-01-29T18:54:04.814Z,71.49
2019-01-29T18:56:34.287Z,71.68
2019-01-29T18:59:04.070Z,71.92
2019-01-29T19:01:33.743Z,71.93
2019-01-29T19:04:03.574Z,71.85
2019-01-29T19:06:33.035Z,71.67
2019-01-29T19:09:02.789Z,71.73
2019-01-29T19:11:32.291Z,71.94
2019-01-29T19:14:01.749Z,71.51
2019-01-29T19:16:31.232Z,71.94
2019-01-29T19:19:00.805Z,72.31
2019-01-29T19:21:30.303Z,71.59
2019-01-29T19:24:01.417Z,71.97
2019-01-29T19:26:31.186Z,72.40
2019-01-29T19:29:00.684Z,71.86
2019-01-29T19:31:30.147Z,72.19
2019-01-29T19:33:59.688Z,72.55
2019-01-29T19:36:29.163Z,72.81
2019-01-29T19:38:59.009Z,72.66
2019-01-29T19:41:28.459Z,72.62
2019-01-29T19:43:57.944Z,72.03
2019-01-29T19:46:27.501Z,71.82
2019-01-29T19:48:57.473Z,71.70
2019-01-29T19:51:26.945Z,71.25
2019-01-29T19:53:56.466Z,71.60
2019-01-29T19:56:26.068Z,71.48
2019-01-29T19:58:55.498Z,71.68
2019-01-29T20:01:24.974Z,71.74
2019-01-29T20:03:54.537Z,71.37
2019-01-29T20:06:24.062Z,71.32
2019-01-29T20:08:53.518Z,70.97
2019-01-29T20:11:22.976Z,71.60
2019-01-29T20:13:52.471Z,71.65
2019-01-29T20:16:22.280Z,72.00
2019-01-29T20:18:51.762Z,71.39
2019-01-29T20:21:21.228Z,72.03
2019-01-29T20:23:50.730Z,71.64
2019-01-29T20:26:20.187Z,71.83
2019-01-29T20:28:49.978Z,70.98
2019-01-29T20:31:19.593Z,72.00
2019-01-29T20:33:49.066Z,72.04
2019-01-29T20:36:18.600Z,72.30
2019-01-29T20:38:48.052Z,72.61
2019-01-29T20:41:17.564Z,71.98
2019-01-29T20:43:47.209Z,71.63
2019-01-29T20:46:16.797Z,71.75
2019-01-29T20:48:46.313Z,71.47
2019-01-29T20:51:15.783Z,71.68
2019-01-29T20:53:45.351Z,71.53
2019-01-29T20:56:14.888Z,71.94
2019-01-29T20:58:52.527Z,72.23
2019-01-29T21:01:15.594Z,72.33
2019-01-29T21:03:45.146Z,72.41
2019-01-29T21:06:14.625Z,73.26
2019-01-29T21:08:44.250Z,72.75
2019-01-29T21:11:13.704Z,72.12
2019-01-29T21:13:43.148Z,72.54
2019-01-29T21:16:12.827Z,72.53
2019-01-29T21:18:42.282Z,72.24
2019-01-29T21:21:12.016Z,72.40
2019-01-29T21:23:41.491Z,73.12
2019-01-29T21:26:11.238Z,73.17
2019-01-29T21:28:40.704Z,72.99
2019-01-29T21:31:10.209Z,73.18
2019-01-29T21:33:39.857Z,73.35
2019-01-29T21:36:09.422Z,73.48
2019-01-29T21:38:38.919Z,73.09
2019-01-29T21:41:08.394Z,72.92
2019-01-29T21:43:37.975Z,72.76
2019-01-29T21:46:07.449Z,72.52
2019-01-29T21:48:37.300Z,72.42
2019-01-29T21:51:07.385Z,72.58
2019-01-29T21:53:36.857Z,72.23
2019-01-29T21:56:06.514Z,72.50
2019-01-29T21:58:36.108Z,73.17
2019-01-29T22:01:05.987Z,71.89
2019-01-29T22:03:35.489Z,72.17
2019-01-29T22:06:05.915Z,71.94
2019-01-29T22:08:35.391Z,72.79
2019-01-29T22:11:04.994Z,72.15
2019-01-29T22:13:34.520Z,72.08
2019-01-29T22:16:03.982Z,72.29
2019-01-29T22:18:33.537Z,72.23
2019-01-29T22:21:03.243Z,71.74
2019-01-29T22:23:32.748Z,71.64
2019-01-29T22:26:02.234Z,71.88
2019-01-29T22:28:31.746Z,70.94
2019-01-29T22:31:01.232Z,70.63
2019-01-29T22:33:30.769Z,71.09
2019-01-29T22:36:00.234Z,71.40
2019-01-29T22:38:29.733Z,71.64
2019-01-29T22:40:59.279Z,71.26
2019-01-29T22:43:28.788Z,72.33
2019-01-29T22:45:58.309Z,72.55
2019-01-29T22:48:27.800Z,72.20
2019-01-29T22:50:57.452Z,72.15
2019-01-29T22:53:26.965Z,72.16
2019-01-29T22:55:56.726Z,72.25
2019-01-29T22:58:26.218Z,72.33
2019-01-29T23:01:22.973Z,72.80
2019-01-29T23:04:04.111Z,72.36
2019-01-29T23:06:53.036Z,71.70
2019-01-29T23:09:22.530Z,71.95
2019-01-29T23:11:52.088Z,71.94
2019-01-29T23:14:21.795Z,72.15
2019-01-29T23:16:51.250Z,72.01
2019-01-29T23:19:20.742Z,72.45
2019-01-29T23:21:50.311Z,71.60
2019-01-29T23:24:19.855Z,72.32
2019-01-29T23:26:49.330Z,71.69
2019-01-29T23:29:18.857Z,72.41
2019-01-29T23:31:48.477Z,72.49
2019-01-29T23:34:17.953Z,72.49
2019-01-29T23:36:47.458Z,71.92
2019-01-29T23:39:16.964Z,71.75
2019-01-29T23:41:46.468Z,72.12
2019-01-29T23:44:15.997Z,72.31
2019-01-29T23:46:45.489Z,72.22
2019-01-29T23:49:14.993Z,72.60
2019-01-29T23:51:44.513Z,72.26
2019-01-29T23:54:14.206Z,72.44
2019-01-29T23:56:43.675Z,72.30
2019-01-29T23:59:13.148Z,71.47
